sensor_id;sensor_type;location;lat;lon;timestamp;P1;durP1;ratioP1;P2;durP2;ratioP2
4057;SDS011;2044;48.692;9.020;2023-05-23T00:02:09;27.57;;;14.43;;
4057;SDS011;2044;48.692;9.020;2023-05-23T00:04:37;24.77;;;14.10;;
4057;SDS011;2044;48.692;9.020;2023-05-23T00:07:04;24.00;;;14.50;;
4057;SDS011;2044;48.692;9.020;2023-05-23T00:09:31;29.03;;;16.87;;
4057;SDS011;2044;48.692;9.020;2023-05-23T00:11:58;28.17;;;16.60;;
4057;SDS011;2044;48.692;9.020;2023-05-23T00:14:26;29.63;;;16.67;;
4057;SDS011;2044;48.692;9.020;2023-05-23T00:16:57;33.50;;;17.77;;
4057;SDS011;2044;48.692;9.020;2023-05-23T00:19:25;31.20;;;17.40;;
4057;SDS011;2044;48.692;9.020;2023-05-23T00:21:52;34.03;;;17.97;;
4057;SDS011;2044;48.692;9.020;2023-05-23T00:24:22;39.50;;;20.80;;
4057;SDS011;2044;48.692;9.020;2023-05-23T00:26:49;42.70;;;19.43;;
4057;SDS011;2044;48.692;9.020;2023-05-23T00:29:16;37.07;;;20.10;;
4057;SDS011;2044;48.692;9.020;2023-05-23T00:31:45;38.20;;;19.80;;
4057;SDS011;2044;48.692;9.020;2023-05-23T00:34:12;38.77;;;19.07;;
4057;SDS011;2044;48.692;9.020;2023-05-23T00:36:38;43.03;;;21.63;;
4057;SDS011;2044;48.692;9.020;2023-05-23T00:39:05;49.30;;;21.33;;
4057;SDS011;2044;48.692;9.020;2023-05-23T00:41:32;42.43;;;20.90;;
4057;SDS011;2044;48.692;9.020;2023-05-23T00:44:00;41.20;;;20.80;;
4057;SDS011;2044;48.692;9.020;2023-05-23T00:46:27;46.80;;;22.43;;
4057;SDS011;2044;48.692;9.020;2023-05-23T00:48:57;44.13;;;21.57;;
4057;SDS011;2044;48.692;9.020;2023-05-23T00:51:23;48.97;;;23.80;;
4057;SDS011;2044;48.692;9.020;2023-05-23T00:53:51;55.60;;;24.63;;
4057;SDS011;2044;48.692;9.020;2023-05-23T00:56:18;53.60;;;25.53;;
4057;SDS011;2044;48.692;9.020;2023-05-23T00:58:45;49.33;;;24.40;;
4057;SDS011;2044;48.692;9.020;2023-05-23T01:01:12;54.63;;;25.10;;
4057;SDS011;2044;48.692;9.020;2023-05-23T01:03:41;54.80;;;27.20;;
4057;SDS011;2044;48.692;9.020;2023-05-23T01:06:11;54.80;;;24.93;;
4057;SDS011;2044;48.692;9.020;2023-05-23T01:08:37;58.40;;;26.17;;
4057;SDS011;2044;48.692;9.020;2023-05-23T01:11:08;53.30;;;24.90;;
4057;SDS011;2044;48.692;9.020;2023-05-23T01:13:54;57.53;;;26.87;;
4057;SDS011;2044;48.692;9.020;2023-05-23T01:16:28;58.23;;;27.17;;
4057;SDS011;2044;48.692;9.020;2023-05-23T01:19:03;60.70;;;26.40;;
4057;SDS011;2044;48.692;9.020;2023-05-23T01:21:41;66.00;;;26.07;;
4057;SDS011;2044;48.692;9.020;2023-05-23T01:24:16;60.30;;;28.60;;
4057;SDS011;2044;48.692;9.020;2023-05-23T01:27:00;57.27;;;26.47;;
4057;SDS011;2044;48.692;9.020;2023-05-23T01:29:36;55.53;;;25.70;;
4057;SDS011;2044;48.692;9.020;2023-05-23T01:32:06;62.87;;;28.10;;
4057;SDS011;2044;48.692;9.020;2023-05-23T01:34:36;59.03;;;27.47;;
4057;SDS011;2044;48.692;9.020;2023-05-23T01:37:06;65.80;;;28.67;;
4057;SDS011;2044;48.692;9.020;2023-05-23T01:39:34;75.20;;;32.50;;
4057;SDS011;2044;48.692;9.020;2023-05-23T01:42:01;76.83;;;31.53;;
4057;SDS011;2044;48.692;9.020;2023-05-23T01:44:28;66.40;;;28.30;;
4057;SDS011;2044;48.692;9.020;2023-05-23T01:46:57;70.43;;;28.67;;
4057;SDS011;2044;48.692;9.020;2023-05-23T01:49:24;64.63;;;29.50;;
4057;SDS011;2044;48.692;9.020;2023-05-23T01:51:52;69.00;;;28.80;;
4057;SDS011;2044;48.692;9.020;2023-05-23T01:54:19;70.07;;;29.63;;
4057;SDS011;2044;48.692;9.020;2023-05-23T01:56:46;70.57;;;31.37;;
4057;SDS011;2044;48.692;9.020;2023-05-23T01:59:13;73.60;;;31.87;;
4057;SDS011;2044;48.692;9.020;2023-05-23T02:01:40;77.20;;;31.27;;
4057;SDS011;2044;48.692;9.020;2023-05-23T02:04:09;75.47;;;31.20;;
4057;SDS011;2044;48.692;9.020;2023-05-23T02:06:36;78.53;;;30.70;;
4057;SDS011;2044;48.692;9.020;2023-05-23T02:09:03;91.70;;;34.43;;
4057;SDS011;2044;48.692;9.020;2023-05-23T02:11:29;73.83;;;32.30;;
4057;SDS011;2044;48.692;9.020;2023-05-23T02:13:56;81.73;;;35.30;;
4057;SDS011;2044;48.692;9.020;2023-05-23T02:16:23;87.40;;;36.13;;
4057;SDS011;2044;48.692;9.020;2023-05-23T02:18:50;82.17;;;31.77;;
4057;SDS011;2044;48.692;9.020;2023-05-23T02:21:21;83.00;;;34.30;;
4057;SDS011;2044;48.692;9.020;2023-05-23T02:23:48;97.70;;;34.60;;
4057;SDS011;2044;48.692;9.020;2023-05-23T02:26:15;81.17;;;34.93;;
4057;SDS011;2044;48.692;9.020;2023-05-23T02:28:42;87.97;;;36.17;;
4057;SDS011;2044;48.692;9.020;2023-05-23T02:31:09;84.50;;;35.27;;
4057;SDS011;2044;48.692;9.020;2023-05-23T02:33:36;85.97;;;34.50;;
4057;SDS011;2044;48.692;9.020;2023-05-23T02:36:03;84.40;;;35.33;;
4057;SDS011;2044;48.692;9.020;2023-05-23T02:38:32;79.73;;;36.17;;
4057;SDS011;2044;48.692;9.020;2023-05-23T02:40:59;84.50;;;35.10;;
4057;SDS011;2044;48.692;9.020;2023-05-23T02:43:25;93.50;;;37.57;;
4057;SDS011;2044;48.692;9.020;2023-05-23T02:45:52;77.63;;;33.30;;
4057;SDS011;2044;48.692;9.020;2023-05-23T02:48:19;79.60;;;34.73;;
4057;SDS011;2044;48.692;9.020;2023-05-23T02:50:46;92.87;;;39.30;;
4057;SDS011;2044;48.692;9.020;2023-05-23T02:53:12;93.00;;;36.30;;
4057;SDS011;2044;48.692;9.020;2023-05-23T02:55:41;82.50;;;35.47;;
4057;SDS011;2044;48.692;9.020;2023-05-23T02:58:08;97.20;;;37.83;;
4057;SDS011;2044;48.692;9.020;2023-05-23T03:00:35;87.50;;;39.20;;
4057;SDS011;2044;48.692;9.020;2023-05-23T03:03:02;91.63;;;36.87;;
4057;SDS011;2044;48.692;9.020;2023-05-23T03:05:28;84.27;;;36.93;;
4057;SDS011;2044;48.692;9.020;2023-05-23T03:07:55;88.73;;;36.83;;
4057;SDS011;2044;48.692;9.020;2023-05-23T03:10:22;85.93;;;34.90;;
4057;SDS011;2044;48.692;9.020;2023-05-23T03:12:50;79.07;;;35.43;;
4057;SDS011;2044;48.692;9.020;2023-05-23T03:15:17;79.87;;;34.37;;
4057;SDS011;2044;48.692;9.020;2023-05-23T03:17:44;76.13;;;35.53;;
4057;SDS011;2044;48.692;9.020;2023-05-23T03:20:10;78.80;;;36.17;;
4057;SDS011;2044;48.692;9.020;2023-05-23T03:22:38;91.10;;;36.00;;
4057;SDS011;2044;48.692;9.020;2023-05-23T03:25:07;84.90;;;35.80;;
4057;SDS011;2044;48.692;9.020;2023-05-23T03:27:34;81.47;;;35.27;;
4057;SDS011;2044;48.692;9.020;2023-05-23T03:30:03;87.23;;;35.13;;
4057;SDS011;2044;48.692;9.020;2023-05-23T03:32:30;78.70;;;36.10;;
4057;SDS011;2044;48.692;9.020;2023-05-23T03:34:57;79.90;;;34.07;;
4057;SDS011;2044;48.692;9.020;2023-05-23T03:37:23;76.43;;;35.50;;
4057;SDS011;2044;48.692;9.020;2023-05-23T03:39:50;74.27;;;33.53;;
4057;SDS011;2044;48.692;9.020;2023-05-23T03:42:17;82.30;;;36.83;;
4057;SDS011;2044;48.692;9.020;2023-05-23T03:44:43;77.37;;;34.13;;
4057;SDS011;2044;48.692;9.020;2023-05-23T03:47:11;75.03;;;33.90;;
4057;SDS011;2044;48.692;9.020;2023-05-23T03:49:38;73.07;;;32.40;;
4057;SDS011;2044;48.692;9.020;2023-05-23T03:52:05;72.70;;;32.57;;
4057;SDS011;2044;48.692;9.020;2023-05-23T03:54:32;68.57;;;34.13;;
4057;SDS011;2044;48.692;9.020;2023-05-23T03:56:58;77.73;;;33.37;;
4057;SDS011;2044;48.692;9.020;2023-05-23T03:59:25;66.27;;;32.07;;
4057;SDS011;2044;48.692;9.020;2023-05-23T04:01:52;73.67;;;32.43;;
4057;SDS011;2044;48.692;9.020;2023-05-23T04:04:20;66.30;;;32.70;;
4057;SDS011;2044;48.692;9.020;2023-05-23T04:06:48;60.93;;;31.27;;
4057;SDS011;2044;48.692;9.020;2023-05-23T04:09:15;65.03;;;29.37;;
4057;SDS011;2044;48.692;9.020;2023-05-23T04:11:42;65.13;;;30.10;;
4057;SDS011;2044;48.692;9.020;2023-05-23T04:14:09;69.00;;;31.47;;
4057;SDS011;2044;48.692;9.020;2023-05-23T04:16:36;62.37;;;30.20;;
4057;SDS011;2044;48.692;9.020;2023-05-23T04:19:05;60.90;;;30.43;;
4057;SDS011;2044;48.692;9.020;2023-05-23T04:21:33;65.80;;;31.43;;
4057;SDS011;2044;48.692;9.020;2023-05-23T04:24:00;66.07;;;30.70;;
4057;SDS011;2044;48.692;9.020;2023-05-23T04:26:27;67.53;;;30.00;;
4057;SDS011;2044;48.692;9.020;2023-05-23T04:28:54;68.80;;;31.03;;
4057;SDS011;2044;48.692;9.020;2023-05-23T04:31:20;62.93;;;31.43;;
4057;SDS011;2044;48.692;9.020;2023-05-23T04:33:50;64.60;;;32.50;;
4057;SDS011;2044;48.692;9.020;2023-05-23T04:36:20;63.67;;;30.07;;
4057;SDS011;2044;48.692;9.020;2023-05-23T04:38:48;67.07;;;31.57;;
4057;SDS011;2044;48.692;9.020;2023-05-23T04:41:15;67.70;;;31.73;;
4057;SDS011;2044;48.692;9.020;2023-05-23T04:43:47;65.00;;;31.13;;
4057;SDS011;2044;48.692;9.020;2023-05-23T04:46:18;63.90;;;30.20;;
4057;SDS011;2044;48.692;9.020;2023-05-23T04:48:50;66.33;;;31.67;;
4057;SDS011;2044;48.692;9.020;2023-05-23T04:51:17;59.57;;;30.27;;
4057;SDS011;2044;48.692;9.020;2023-05-23T04:53:49;59.20;;;31.07;;
4057;SDS011;2044;48.692;9.020;2023-05-23T04:56:16;63.33;;;31.10;;
4057;SDS011;2044;48.692;9.020;2023-05-23T04:58:44;63.37;;;28.70;;
4057;SDS011;2044;48.692;9.020;2023-05-23T05:01:13;58.27;;;29.10;;
4057;SDS011;2044;48.692;9.020;2023-05-23T05:03:41;63.33;;;28.97;;
4057;SDS011;2044;48.692;9.020;2023-05-23T05:06:08;58.63;;;30.50;;
4057;SDS011;2044;48.692;9.020;2023-05-23T05:08:35;60.50;;;30.90;;
4057;SDS011;2044;48.692;9.020;2023-05-23T05:11:03;57.90;;;29.63;;
4057;SDS011;2044;48.692;9.020;2023-05-23T05:13:30;64.03;;;30.40;;
4057;SDS011;2044;48.692;9.020;2023-05-23T05:16:05;64.20;;;32.10;;
4057;SDS011;2044;48.692;9.020;2023-05-23T05:18:31;61.73;;;30.47;;
4057;SDS011;2044;48.692;9.020;2023-05-23T05:20:59;63.43;;;31.07;;
4057;SDS011;2044;48.692;9.020;2023-05-23T05:23:27;58.17;;;31.20;;
4057;SDS011;2044;48.692;9.020;2023-05-23T05:25:57;63.47;;;29.57;;
4057;SDS011;2044;48.692;9.020;2023-05-23T05:28:25;59.77;;;30.37;;
4057;SDS011;2044;48.692;9.020;2023-05-23T05:30:52;54.30;;;28.43;;
4057;SDS011;2044;48.692;9.020;2023-05-23T05:33:19;63.57;;;32.00;;
4057;SDS011;2044;48.692;9.020;2023-05-23T05:35:48;59.67;;;31.20;;
4057;SDS011;2044;48.692;9.020;2023-05-23T05:38:16;58.30;;;30.83;;
4057;SDS011;2044;48.692;9.020;2023-05-23T05:40:47;60.37;;;30.43;;
4057;SDS011;2044;48.692;9.020;2023-05-23T05:43:14;56.53;;;30.77;;
4057;SDS011;2044;48.692;9.020;2023-05-23T05:45:42;57.57;;;28.80;;
4057;SDS011;2044;48.692;9.020;2023-05-23T05:48:09;63.90;;;30.60;;
4057;SDS011;2044;48.692;9.020;2023-05-23T05:50:36;57.90;;;29.40;;
4057;SDS011;2044;48.692;9.020;2023-05-23T05:53:03;63.07;;;30.70;;
4057;SDS011;2044;48.692;9.020;2023-05-23T05:55:32;54.23;;;27.43;;
4057;SDS011;2044;48.692;9.020;2023-05-23T05:58:01;54.93;;;28.37;;
4057;SDS011;2044;48.692;9.020;2023-05-23T06:00:27;62.13;;;29.80;;
4057;SDS011;2044;48.692;9.020;2023-05-23T06:02:56;58.50;;;30.20;;
4057;SDS011;2044;48.692;9.020;2023-05-23T06:05:22;57.77;;;30.77;;
4057;SDS011;2044;48.692;9.020;2023-05-23T06:07:50;60.73;;;30.93;;
4057;SDS011;2044;48.692;9.020;2023-05-23T06:10:17;56.70;;;29.13;;
4057;SDS011;2044;48.692;9.020;2023-05-23T06:12:44;54.53;;;27.77;;
4057;SDS011;2044;48.692;9.020;2023-05-23T06:15:12;57.10;;;27.60;;
4057;SDS011;2044;48.692;9.020;2023-05-23T06:17:39;62.93;;;31.33;;
4057;SDS011;2044;48.692;9.020;2023-05-23T06:20:16;63.50;;;28.27;;
4057;SDS011;2044;48.692;9.020;2023-05-23T06:22:43;55.63;;;28.07;;
4057;SDS011;2044;48.692;9.020;2023-05-23T06:25:10;58.50;;;30.37;;
4057;SDS011;2044;48.692;9.020;2023-05-23T06:27:37;55.80;;;27.97;;
4057;SDS011;2044;48.692;9.020;2023-05-23T06:30:04;52.07;;;29.40;;
4057;SDS011;2044;48.692;9.020;2023-05-23T06:32:31;58.07;;;30.50;;
4057;SDS011;2044;48.692;9.020;2023-05-23T06:34:58;52.67;;;27.50;;
4057;SDS011;2044;48.692;9.020;2023-05-23T06:37:26;50.67;;;26.80;;
4057;SDS011;2044;48.692;9.020;2023-05-23T06:39:53;50.60;;;26.27;;
4057;SDS011;2044;48.692;9.020;2023-05-23T06:42:20;52.20;;;27.37;;
4057;SDS011;2044;48.692;9.020;2023-05-23T06:44:56;50.07;;;25.33;;
4057;SDS011;2044;48.692;9.020;2023-05-23T06:47:23;44.73;;;24.70;;
4057;SDS011;2044;48.692;9.020;2023-05-23T06:49:50;48.20;;;26.03;;
4057;SDS011;2044;48.692;9.020;2023-05-23T06:52:17;44.83;;;24.93;;
4057;SDS011;2044;48.692;9.020;2023-05-23T06:54:45;44.40;;;26.07;;
4057;SDS011;2044;48.692;9.020;2023-05-23T06:57:12;41.90;;;23.70;;
4057;SDS011;2044;48.692;9.020;2023-05-23T06:59:39;45.83;;;23.20;;
4057;SDS011;2044;48.692;9.020;2023-05-23T07:02:05;40.47;;;21.70;;
4057;SDS011;2044;48.692;9.020;2023-05-23T07:04:34;48.33;;;24.73;;
4057;SDS011;2044;48.692;9.020;2023-05-23T07:07:00;45.10;;;23.97;;
4057;SDS011;2044;48.692;9.020;2023-05-23T07:09:27;43.63;;;24.13;;
4057;SDS011;2044;48.692;9.020;2023-05-23T07:11:55;39.40;;;21.40;;
4057;SDS011;2044;48.692;9.020;2023-05-23T07:14:23;34.30;;;19.93;;
4057;SDS011;2044;48.692;9.020;2023-05-23T07:16:49;42.57;;;22.70;;
4057;SDS011;2044;48.692;9.020;2023-05-23T07:19:16;39.33;;;23.33;;
4057;SDS011;2044;48.692;9.020;2023-05-23T07:21:43;39.20;;;23.00;;
4057;SDS011;2044;48.692;9.020;2023-05-23T07:24:10;42.37;;;23.77;;
4057;SDS011;2044;48.692;9.020;2023-05-23T07:26:36;42.30;;;20.87;;
4057;SDS011;2044;48.692;9.020;2023-05-23T07:29:04;37.67;;;21.13;;
4057;SDS011;2044;48.692;9.020;2023-05-23T07:31:31;40.10;;;21.97;;
4057;SDS011;2044;48.692;9.020;2023-05-23T07:33:58;46.00;;;24.13;;
4057;SDS011;2044;48.692;9.020;2023-05-23T07:36:25;45.77;;;23.90;;
4057;SDS011;2044;48.692;9.020;2023-05-23T07:38:53;43.80;;;24.43;;
4057;SDS011;2044;48.692;9.020;2023-05-23T07:41:26;47.40;;;24.17;;
4057;SDS011;2044;48.692;9.020;2023-05-23T07:43:56;46.50;;;23.97;;
4057;SDS011;2044;48.692;9.020;2023-05-23T07:46:34;43.20;;;23.60;;
4057;SDS011;2044;48.692;9.020;2023-05-23T07:49:01;42.17;;;23.83;;
4057;SDS011;2044;48.692;9.020;2023-05-23T07:51:28;38.80;;;22.93;;
4057;SDS011;2044;48.692;9.020;2023-05-23T07:53:55;40.23;;;22.30;;
4057;SDS011;2044;48.692;9.020;2023-05-23T07:56:22;41.23;;;23.00;;
4057;SDS011;2044;48.692;9.020;2023-05-23T07:58:50;38.53;;;22.03;;
4057;SDS011;2044;48.692;9.020;2023-05-23T08:01:17;44.43;;;23.70;;
4057;SDS011;2044;48.692;9.020;2023-05-23T08:03:45;41.33;;;22.83;;
4057;SDS011;2044;48.692;9.020;2023-05-23T08:06:13;43.80;;;23.23;;
4057;SDS011;2044;48.692;9.020;2023-05-23T08:08:41;39.27;;;22.10;;
4057;SDS011;2044;48.692;9.020;2023-05-23T08:11:10;37.07;;;21.73;;
4057;SDS011;2044;48.692;9.020;2023-05-23T08:13:36;40.27;;;21.13;;
4057;SDS011;2044;48.692;9.020;2023-05-23T08:16:04;40.57;;;22.53;;
4057;SDS011;2044;48.692;9.020;2023-05-23T08:18:31;41.97;;;21.90;;
4057;SDS011;2044;48.692;9.020;2023-05-23T08:21:05;35.63;;;21.17;;
4057;SDS011;2044;48.692;9.020;2023-05-23T08:23:32;38.17;;;19.97;;
4057;SDS011;2044;48.692;9.020;2023-05-23T08:26:01;34.80;;;19.83;;
4057;SDS011;2044;48.692;9.020;2023-05-23T08:28:28;35.93;;;20.97;;
4057;SDS011;2044;48.692;9.020;2023-05-23T08:30:55;34.10;;;19.33;;
4057;SDS011;2044;48.692;9.020;2023-05-23T08:33:24;32.03;;;18.20;;
4057;SDS011;2044;48.692;9.020;2023-05-23T08:35:51;34.40;;;20.10;;
4057;SDS011;2044;48.692;9.020;2023-05-23T08:38:20;37.53;;;19.03;;
4057;SDS011;2044;48.692;9.020;2023-05-23T08:40:49;28.30;;;17.23;;
4057;SDS011;2044;48.692;9.020;2023-05-23T08:43:16;35.60;;;18.63;;
4057;SDS011;2044;48.692;9.020;2023-05-23T08:45:44;30.60;;;17.87;;
4057;SDS011;2044;48.692;9.020;2023-05-23T08:48:11;31.53;;;17.57;;
4057;SDS011;2044;48.692;9.020;2023-05-23T08:50:41;32.63;;;18.23;;
4057;SDS011;2044;48.692;9.020;2023-05-23T08:53:10;29.03;;;16.67;;
4057;SDS011;2044;48.692;9.020;2023-05-23T08:55:55;29.60;;;17.23;;
4057;SDS011;2044;48.692;9.020;2023-05-23T08:58:32;28.70;;;16.77;;
4057;SDS011;2044;48.692;9.020;2023-05-23T09:01:03;31.20;;;16.33;;
4057;SDS011;2044;48.692;9.020;2023-05-23T09:03:31;25.53;;;14.40;;
4057;SDS011;2044;48.692;9.020;2023-05-23T09:05:57;26.57;;;15.77;;
4057;SDS011;2044;48.692;9.020;2023-05-23T09:08:25;29.17;;;16.60;;
4057;SDS011;2044;48.692;9.020;2023-05-23T09:10:52;28.00;;;16.57;;
4057;SDS011;2044;48.692;9.020;2023-05-23T09:13:21;29.03;;;16.70;;
4057;SDS011;2044;48.692;9.020;2023-05-23T09:16:00;25.80;;;16.60;;
4057;SDS011;2044;48.692;9.020;2023-05-23T09:18:32;26.10;;;15.87;;
4057;SDS011;2044;48.692;9.020;2023-05-23T09:21:04;27.00;;;15.40;;
4057;SDS011;2044;48.692;9.020;2023-05-23T09:23:31;27.77;;;16.83;;
4057;SDS011;2044;48.692;9.020;2023-05-23T09:26:04;29.13;;;17.77;;
4057;SDS011;2044;48.692;9.020;2023-05-23T09:28:34;25.73;;;15.90;;
4057;SDS011;2044;48.692;9.020;2023-05-23T09:31:03;23.47;;;15.03;;
4057;SDS011;2044;48.692;9.020;2023-05-23T09:33:34;25.83;;;16.57;;
4057;SDS011;2044;48.692;9.020;2023-05-23T09:36:02;28.30;;;16.00;;
4057;SDS011;2044;48.692;9.020;2023-05-23T09:38:30;22.90;;;13.60;;
4057;SDS011;2044;48.692;9.020;2023-05-23T09:40:57;21.70;;;13.03;;
4057;SDS011;2044;48.692;9.020;2023-05-23T09:43:26;28.10;;;15.43;;
4057;SDS011;2044;48.692;9.020;2023-05-23T09:45:55;22.30;;;14.30;;
4057;SDS011;2044;48.692;9.020;2023-05-23T09:48:29;21.20;;;13.40;;
4057;SDS011;2044;48.692;9.020;2023-05-23T09:50:58;20.00;;;13.53;;
4057;SDS011;2044;48.692;9.020;2023-05-23T09:53:29;17.80;;;12.63;;
4057;SDS011;2044;48.692;9.020;2023-05-23T09:55:57;16.87;;;11.70;;
4057;SDS011;2044;48.692;9.020;2023-05-23T09:58:29;19.07;;;12.90;;
4057;SDS011;2044;48.692;9.020;2023-05-23T10:00:58;15.83;;;12.40;;
4057;SDS011;2044;48.692;9.020;2023-05-23T10:03:30;16.13;;;12.90;;
4057;SDS011;2044;48.692;9.020;2023-05-23T10:06:00;17.50;;;14.60;;
4057;SDS011;2044;48.692;9.020;2023-05-23T10:08:33;14.90;;;12.47;;
4057;SDS011;2044;48.692;9.020;2023-05-23T10:14:17;15.50;;;12.90;;
4057;SDS011;2044;48.692;9.020;2023-05-23T10:16:52;13.73;;;11.67;;
4057;SDS011;2044;48.692;9.020;2023-05-23T10:19:23;18.17;;;12.13;;
4057;SDS011;2044;48.692;9.020;2023-05-23T10:22:03;12.93;;;11.43;;
4057;SDS011;2044;48.692;9.020;2023-05-23T10:24:33;15.77;;;12.60;;
4057;SDS011;2044;48.692;9.020;2023-05-23T10:27:01;17.20;;;13.80;;
4057;SDS011;2044;48.692;9.020;2023-05-23T10:29:30;15.37;;;12.80;;
4057;SDS011;2044;48.692;9.020;2023-05-23T10:31:59;14.77;;;12.57;;
4057;SDS011;2044;48.692;9.020;2023-05-23T10:34:28;15.37;;;12.93;;
4057;SDS011;2044;48.692;9.020;2023-05-23T10:37:03;15.67;;;12.53;;
4057;SDS011;2044;48.692;9.020;2023-05-23T10:39:33;16.23;;;12.97;;
4057;SDS011;2044;48.692;9.020;2023-05-23T10:42:10;14.67;;;13.17;;
4057;SDS011;2044;48.692;9.020;2023-05-23T10:44:44;13.53;;;11.97;;
4057;SDS011;2044;48.692;9.020;2023-05-23T10:47:10;13.27;;;11.23;;
4057;SDS011;2044;48.692;9.020;2023-05-23T10:49:37;13.80;;;12.40;;
4057;SDS011;2044;48.692;9.020;2023-05-23T10:52:06;14.60;;;12.70;;
4057;SDS011;2044;48.692;9.020;2023-05-23T10:54:36;13.47;;;12.23;;
4057;SDS011;2044;48.692;9.020;2023-05-23T10:57:07;14.40;;;13.13;;
4057;SDS011;2044;48.692;9.020;2023-05-23T10:59:36;18.33;;;14.37;;
4057;SDS011;2044;48.692;9.020;2023-05-23T11:02:05;14.33;;;13.03;;
4057;SDS011;2044;48.692;9.020;2023-05-23T11:04:33;14.33;;;13.03;;
4057;SDS011;2044;48.692;9.020;2023-05-23T11:07:01;16.37;;;14.80;;
4057;SDS011;2044;48.692;9.020;2023-05-23T11:09:28;16.73;;;15.13;;
4057;SDS011;2044;48.692;9.020;2023-05-23T11:11:55;17.53;;;15.73;;
4057;SDS011;2044;48.692;9.020;2023-05-23T11:14:30;17.07;;;15.40;;
4057;SDS011;2044;48.692;9.020;2023-05-23T11:17:15;16.70;;;14.53;;
4057;SDS011;2044;48.692;9.020;2023-05-23T11:19:57;16.53;;;14.90;;
4057;SDS011;2044;48.692;9.020;2023-05-23T11:22:28;19.40;;;14.50;;
4057;SDS011;2044;48.692;9.020;2023-05-23T11:24:57;16.80;;;15.10;;
4057;SDS011;2044;48.692;9.020;2023-05-23T11:27:27;15.60;;;14.00;;
4057;SDS011;2044;48.692;9.020;2023-05-23T11:29:59;16.60;;;15.00;;
4057;SDS011;2044;48.692;9.020;2023-05-23T11:32:31;16.70;;;14.90;;
4057;SDS011;2044;48.692;9.020;2023-05-23T11:34:59;16.30;;;14.70;;
4057;SDS011;2044;48.692;9.020;2023-05-23T11:37:26;15.83;;;14.23;;
4057;SDS011;2044;48.692;9.020;2023-05-23T11:39:54;15.80;;;14.20;;
4057;SDS011;2044;48.692;9.020;2023-05-23T11:42:22;15.37;;;13.77;;
4057;SDS011;2044;48.692;9.020;2023-05-23T11:44:49;15.37;;;13.73;;
4057;SDS011;2044;48.692;9.020;2023-05-23T11:47:17;15.63;;;14.13;;
4057;SDS011;2044;48.692;9.020;2023-05-23T11:49:46;15.50;;;14.10;;
4057;SDS011;2044;48.692;9.020;2023-05-23T11:52:13;17.37;;;15.67;;
4057;SDS011;2044;48.692;9.020;2023-05-23T11:54:40;16.40;;;14.80;;
4057;SDS011;2044;48.692;9.020;2023-05-23T11:57:08;15.30;;;14.00;;
4057;SDS011;2044;48.692;9.020;2023-05-23T11:59:35;15.10;;;13.80;;
4057;SDS011;2044;48.692;9.020;2023-05-23T12:02:04;16.73;;;15.20;;
4057;SDS011;2044;48.692;9.020;2023-05-23T12:04:31;16.03;;;14.43;;
4057;SDS011;2044;48.692;9.020;2023-05-23T12:07:03;15.00;;;13.60;;
4057;SDS011;2044;48.692;9.020;2023-05-23T12:09:40;14.73;;;13.43;;
4057;SDS011;2044;48.692;9.020;2023-05-23T12:12:07;15.13;;;13.77;;
4057;SDS011;2044;48.692;9.020;2023-05-23T12:14:34;14.20;;;12.90;;
4057;SDS011;2044;48.692;9.020;2023-05-23T12:17:08;14.90;;;13.47;;
4057;SDS011;2044;48.692;9.020;2023-05-23T12:19:36;13.70;;;12.57;;
4057;SDS011;2044;48.692;9.020;2023-05-23T12:22:05;12.73;;;11.60;;
4057;SDS011;2044;48.692;9.020;2023-05-23T12:24:33;11.90;;;10.80;;
4057;SDS011;2044;48.692;9.020;2023-05-23T12:27:01;11.30;;;10.40;;
4057;SDS011;2044;48.692;9.020;2023-05-23T12:29:29;11.63;;;10.63;;
4057;SDS011;2044;48.692;9.020;2023-05-23T12:31:58;11.13;;;10.23;;
4057;SDS011;2044;48.692;9.020;2023-05-23T12:34:25;12.23;;;11.10;;
4057;SDS011;2044;48.692;9.020;2023-05-23T12:36:53;10.87;;;9.93;;
4057;SDS011;2044;48.692;9.020;2023-05-23T12:39:24;11.63;;;10.70;;
4057;SDS011;2044;48.692;9.020;2023-05-23T12:41:53;11.00;;;10.10;;
4057;SDS011;2044;48.692;9.020;2023-05-23T12:44:28;11.37;;;10.37;;
4057;SDS011;2044;48.692;9.020;2023-05-23T12:46:56;12.30;;;11.30;;
4057;SDS011;2044;48.692;9.020;2023-05-23T12:49:23;11.40;;;10.60;;
4057;SDS011;2044;48.692;9.020;2023-05-23T12:51:53;11.30;;;10.40;;
4057;SDS011;2044;48.692;9.020;2023-05-23T12:54:24;12.37;;;11.07;;
4057;SDS011;2044;48.692;9.020;2023-05-23T12:56:51;11.50;;;10.63;;
4057;SDS011;2044;48.692;9.020;2023-05-23T12:59:18;11.60;;;10.50;;
4057;SDS011;2044;48.692;9.020;2023-05-23T13:01:46;11.07;;;10.20;;
4057;SDS011;2044;48.692;9.020;2023-05-23T13:04:15;10.70;;;9.90;;
4057;SDS011;2044;48.692;9.020;2023-05-23T13:06:41;10.70;;;9.90;;
4057;SDS011;2044;48.692;9.020;2023-05-23T13:09:10;11.00;;;10.20;;
4057;SDS011;2044;48.692;9.020;2023-05-23T13:11:39;9.43;;;8.73;;
4057;SDS011;2044;48.692;9.020;2023-05-23T13:14:06;10.90;;;10.00;;
4057;SDS011;2044;48.692;9.020;2023-05-23T13:16:36;10.60;;;9.87;;
4057;SDS011;2044;48.692;9.020;2023-05-23T13:19:04;10.13;;;9.53;;
4057;SDS011;2044;48.692;9.020;2023-05-23T13:21:32;11.40;;;10.50;;
4057;SDS011;2044;48.692;9.020;2023-05-23T13:23:59;11.30;;;10.60;;
4057;SDS011;2044;48.692;9.020;2023-05-23T13:26:26;11.80;;;10.90;;
4057;SDS011;2044;48.692;9.020;2023-05-23T13:28:55;12.00;;;11.27;;
4057;SDS011;2044;48.692;9.020;2023-05-23T13:31:22;12.10;;;11.30;;
4057;SDS011;2044;48.692;9.020;2023-05-23T13:33:49;11.60;;;10.90;;
4057;SDS011;2044;48.692;9.020;2023-05-23T13:36:16;11.67;;;10.90;;
4057;SDS011;2044;48.692;9.020;2023-05-23T13:38:45;11.67;;;10.90;;
4057;SDS011;2044;48.692;9.020;2023-05-23T13:41:12;11.10;;;10.20;;
4057;SDS011;2044;48.692;9.020;2023-05-23T13:43:39;12.20;;;11.30;;
4057;SDS011;2044;48.692;9.020;2023-05-23T13:46:07;10.30;;;9.60;;
4057;SDS011;2044;48.692;9.020;2023-05-23T13:48:34;10.60;;;9.90;;
4057;SDS011;2044;48.692;9.020;2023-05-23T13:51:02;10.30;;;9.60;;
4057;SDS011;2044;48.692;9.020;2023-05-23T13:53:29;11.07;;;10.27;;
4057;SDS011;2044;48.692;9.020;2023-05-23T13:55:56;10.20;;;9.47;;
4057;SDS011;2044;48.692;9.020;2023-05-23T13:58:23;10.20;;;9.50;;
4057;SDS011;2044;48.692;9.020;2023-05-23T14:00:49;9.50;;;8.90;;
4057;SDS011;2044;48.692;9.020;2023-05-23T14:03:18;10.30;;;9.50;;
4057;SDS011;2044;48.692;9.020;2023-05-23T14:05:47;9.63;;;9.03;;
4057;SDS011;2044;48.692;9.020;2023-05-23T14:08:14;10.10;;;9.40;;
4057;SDS011;2044;48.692;9.020;2023-05-23T14:10:41;10.70;;;9.97;;
4057;SDS011;2044;48.692;9.020;2023-05-23T14:13:08;9.37;;;8.77;;
4057;SDS011;2044;48.692;9.020;2023-05-23T14:15:35;9.93;;;9.20;;
4057;SDS011;2044;48.692;9.020;2023-05-23T14:18:03;9.87;;;9.17;;
4057;SDS011;2044;48.692;9.020;2023-05-23T14:20:34;10.00;;;9.20;;
4057;SDS011;2044;48.692;9.020;2023-05-23T14:23:01;10.00;;;9.30;;
4057;SDS011;2044;48.692;9.020;2023-05-23T14:25:28;9.30;;;8.70;;
4057;SDS011;2044;48.692;9.020;2023-05-23T14:27:55;10.30;;;9.50;;
4057;SDS011;2044;48.692;9.020;2023-05-23T14:30:21;10.20;;;9.60;;
4057;SDS011;2044;48.692;9.020;2023-05-23T14:32:48;9.67;;;8.97;;
4057;SDS011;2044;48.692;9.020;2023-05-23T14:35:15;9.67;;;9.07;;
4057;SDS011;2044;48.692;9.020;2023-05-23T14:37:43;9.77;;;9.17;;
4057;SDS011;2044;48.692;9.020;2023-05-23T14:40:11;10.07;;;9.37;;
4057;SDS011;2044;48.692;9.020;2023-05-23T14:42:40;10.47;;;9.77;;
4057;SDS011;2044;48.692;9.020;2023-05-23T14:45:09;9.63;;;9.03;;
4057;SDS011;2044;48.692;9.020;2023-05-23T14:47:36;9.63;;;8.93;;
4057;SDS011;2044;48.692;9.020;2023-05-23T14:50:06;9.60;;;9.00;;
4057;SDS011;2044;48.692;9.020;2023-05-23T14:52:33;10.00;;;9.30;;
4057;SDS011;2044;48.692;9.020;2023-05-23T14:55:03;9.23;;;8.73;;
4057;SDS011;2044;48.692;9.020;2023-05-23T14:57:34;10.30;;;9.70;;
4057;SDS011;2044;48.692;9.020;2023-05-23T15:00:03;9.80;;;9.20;;
4057;SDS011;2044;48.692;9.020;2023-05-23T15:02:32;10.40;;;9.70;;